Latest Weather Observations for Montague Island

IDN60901

Issued at 10:55 pm EST Wednesday 27 August 2014 (issued every 10 minutes, with the page automatically refreshed every 10 minutes)

About weather observations | Map of Canberra area stations | Latest observations for Canberra area | Other Formats
Station Details ID: 069017 Name: MONTAGUE ISLAND LIGHTHOUSE Lat: -36.25 Lon: 150.23 Height: 52.0 m
Data from the previous 72 hours. | See also: Recent months at Montague Island
Date/Time
EST
Tmp

°C
App
Tmp
°C
Dew
Point
°C
Rel
Hum
%
Delta-T

°C
Wind Press
QNH
hPa
Press
MSL
hPa
Rain
since
9 am
mm
Dir
 
Spd
km/h
Gust
km/h
Spd
kts
Gust
kts
27/10:30pm 14.1 9.9 7.6 65 3.2 SSE 19 24 10 13 1028.8 - 5.0
27/10:00pm 14.4 9.6 7.2 62 3.5 SSE 22 28 12 15 1028.6 1028.6 5.0
27/09:30pm 14.5 9.9 8.0 65 3.2 SE 22 26 12 14 1028.6 - 5.0
27/09:00pm 14.5 9.4 7.8 64 3.3 SSE 24 28 13 15 1028.7 1028.7 5.0
27/08:30pm 14.5 9.5 8.0 65 3.2 SE 24 30 13 16 1028.7 - 5.0
27/08:00pm 14.6 9.7 8.3 66 3.1 SE 24 28 13 15 1028.8 1028.8 5.0
27/07:30pm 14.6 10.1 8.5 67 3.1 SE 22 28 12 15 1028.7 - 5.0
27/07:00pm 14.4 10.0 9.0 70 2.7 SE 22 26 12 14 1028.4 1028.4 5.0
27/06:30pm 14.5 9.8 9.1 70 2.8 SE 24 28 13 15 1028.2 - 5.0
27/06:00pm 14.7 10.0 9.3 70 2.8 SE 24 30 13 16 1028.1 1028.1 5.0
27/05:30pm 14.5 10.3 9.9 74 2.4 SE 22 26 12 14 1027.9 - 5.0
27/05:00pm 14.5 10.7 9.7 73 2.5 SE 20 24 11 13 1027.8 1027.8 5.0
27/04:30pm 14.5 10.9 9.7 73 2.5 SE 19 24 10 13 1027.6 - 5.0
27/04:00pm 14.6 10.9 10.0 74 2.4 SE 20 24 11 13 1027.5 1027.5 5.0
27/03:30pm 13.9 11.4 10.9 82 1.6 SE 15 19 8 10 1027.5 - 5.0
27/03:00pm 14.8 8.6 10.2 74 2.4 SE 33 41 18 22 1027.5 1027.5 5.0
27/02:30pm 15.6 11.2 10.4 71 2.7 SE 24 30 13 16 1027.4 - 5.0
27/02:00pm 15.7 10.7 9.4 66 3.2 SSE 26 32 14 17 1027.5 1027.5 5.0
27/01:30pm 16.1 12.0 8.6 61 3.8 SE 20 24 11 13 1027.6 - 5.0
27/01:00pm 16.1 12.1 8.1 59 4.0 SE 19 24 10 13 1027.7 1027.7 5.0
27/12:30pm 15.9 12.4 10.9 72 2.7 SW 20 28 11 15 1028.0 - 5.0
27/12:00pm 15.7 12.3 11.1 74 2.4 SSW 20 30 11 16 1028.2 1028.2 5.0
27/11:30am 15.2 11.7 11.0 76 2.2 S 20 26 11 14 1028.5 - 5.0
27/11:00am 14.3 10.0 10.7 79 1.9 SSW 24 32 13 17 1028.7 1028.7 5.0
27/10:30am 15.1 12.0 12.1 82 1.6 SW 20 28 11 15 1028.8 - 5.0
27/10:00am 14.5 10.6 10.7 78 2.0 SW 22 26 12 14 1028.7 1028.7 4.8
27/09:30am 13.9 9.8 10.1 78 2.0 SW 22 26 12 14 1028.7 - 0.0
27/09:00am 14.2 10.1 10.2 77 2.1 SW 22 26 12 14 1028.7 1028.7 2.0
27/08:30am 14.4 11.5 9.6 73 2.5 SSW 15 19 8 10 1028.6 - 2.0
27/08:00am 15.1 11.0 8.6 65 3.3 SE 20 26 11 14 1028.3 1028.3 2.0
27/07:30am 14.7 10.2 8.4 66 3.2 SE 22 26 12 14 1028.1 - 2.0
27/07:00am 14.4 9.4 8.1 66 3.1 ESE 24 32 13 17 1027.9 1027.9 2.0
27/06:30am 14.1 9.1 8.1 67 3.0 ESE 24 30 13 16 1027.7 - 2.0
27/06:00am 13.9 8.1 8.1 68 2.9 ESE 28 33 15 18 1027.7 1027.7 2.0
27/05:30am 14.0 8.5 9.2 73 2.4 ESE 28 33 15 18 1027.5 - 2.0
27/05:00am 13.9 9.2 9.3 74 2.3 SE 24 30 13 16 1027.6 1027.6 2.0
27/04:30am 14.0 9.4 9.6 75 2.3 ESE 24 30 13 16 1027.4 - 2.0
27/04:00am 14.0 9.4 9.6 75 2.2 ESE 24 28 13 15 1027.4 1027.4 2.0
27/03:30am 14.0 9.7 9.4 74 2.4 ESE 22 26 12 14 1027.5 - 2.0
27/03:00am 14.2 10.4 9.0 71 2.6 ESE 19 22 10 12 1027.6 1027.6 2.0
27/02:30am 14.3 10.9 9.3 72 2.6 ESE 17 22 9 12 1027.8 - 2.0
27/02:00am 14.5 10.1 8.9 69 2.8 E 22 26 12 14 1027.9 1027.9 2.0
27/01:30am 14.5 9.3 8.9 69 2.8 E 26 32 14 17 1028.0 - 2.0
27/01:00am 14.5 9.2 9.9 74 2.4 E 28 32 15 17 1028.0 1028.0 2.0
27/12:30am 14.5 8.9 10.1 75 2.3 E 30 35 16 19 1028.1 - 2.0
27/12:00am 14.5 8.6 10.3 76 2.2 E 32 35 17 19 1028.1 1028.1 2.0
 
Date/Time
EST
Tmp

°C
App
Tmp
°C
Dew
Point
°C
Rel
Hum
%
Delta-T

°C
Wind Press
QNH
hPa
Press
MSL
hPa
Rain
since
9 am
mm
Dir
 
Spd
km/h
Gust
km/h
Spd
kts
Gust
kts
26/11:30pm 14.6 8.5 9.8 73 2.5 E 32 39 17 21 1028.2 - 2.0
26/11:00pm 14.7 8.6 10.3 75 2.3 E 33 39 18 21 1028.2 1028.2 2.0
26/10:30pm 14.7 8.6 9.9 73 2.5 ESE 32 35 17 19 1028.4 - 2.0
26/10:00pm 14.8 8.3 10.4 75 2.3 ESE 35 39 19 21 1028.4 1028.4 2.0
26/09:30pm 14.8 8.6 10.0 73 2.5 E 33 37 18 20 1028.6 - 2.0
26/09:00pm 15.0 9.0 10.2 73 2.5 ESE 32 35 17 19 1028.5 1028.5 2.0
26/08:30pm 15.0 8.8 10.2 73 2.5 E 33 37 18 20 1028.4 - 2.0
26/08:00pm 14.9 8.5 10.7 76 2.2 ESE 35 41 19 22 1028.3 1028.3 2.0
26/07:30pm 15.1 8.4 11.1 77 2.1 E 37 43 20 23 1028.0 - 2.0
26/07:00pm 15.1 8.6 11.7 80 1.8 E 37 43 20 23 1027.7 1027.7 2.0
26/06:30pm 15.2 8.7 11.6 79 1.9 E 37 41 20 22 1027.4 - 2.0
26/06:00pm 15.2 8.7 11.6 79 1.9 E 37 41 20 22 1027.1 1027.1 2.0
26/05:30pm 15.2 9.2 12.2 82 1.6 E 35 39 19 21 1026.9 - 2.0
26/05:05pm 14.9 9.7 12.8 87 1.2 E 32 37 17 20 1026.8 - 2.0
26/05:00pm 14.4 13.4 12.4 88 1.1 E 9 17 5 9 1026.9 1026.9 2.0
26/04:30pm 13.2 10.9 11.8 91 0.7 E 15 20 8 11 1026.9 - 1.8
26/04:00pm 14.8 9.6 10.4 75 2.3 ESE 28 37 15 20 1026.6 1026.6 0.4
26/03:30pm 14.6 6.6 11.2 80 1.8 E 44 50 24 27 1026.3 - 0.4
26/03:00pm 15.0 8.0 12.5 85 1.4 E 41 46 22 25 1026.3 1026.3 0.4
26/02:30pm 15.8 9.0 12.0 78 2.1 E 39 44 21 24 1026.3 - 0.4
26/02:00pm 16.1 9.1 12.5 79 2.0 E 41 46 22 25 1026.2 1026.2 0.4
26/01:30pm 16.1 9.1 12.5 79 2.0 E 41 48 22 26 1026.3 - 0.4
26/01:00pm 15.8 8.5 12.7 82 1.7 E 43 46 23 25 1026.4 1026.4 0.4
26/12:30pm 15.8 8.2 12.5 81 1.8 E 44 50 24 27 1026.5 - 0.4
26/12:00pm 16.1 8.6 12.7 80 1.9 E 44 50 24 27 1026.7 1026.7 0.4
26/11:30am 15.9 8.0 12.6 81 1.8 E 46 52 25 28 1027.1 - 0.4
26/11:00am 15.8 7.9 12.7 82 1.7 E 46 52 25 28 1027.2 1027.2 0.4
26/10:30am 15.5 8.3 13.2 86 1.3 E 43 50 23 27 1027.1 - 0.4
26/10:00am 15.6 7.2 12.4 81 1.7 E 48 57 26 31 1027.1 1027.1 0.0
26/09:30am 15.4 8.2 13.1 86 1.3 SE 43 48 23 26 1027.2 - 0.0
26/09:00am 15.6 8.9 13.3 86 1.3 ESE 41 44 22 24 1027.1 1027.1 9.4
26/08:30am 15.5 8.7 13.0 85 1.4 ESE 41 48 22 26 1027.0 - 9.4
26/08:00am 15.5 8.1 12.4 82 1.7 ESE 43 48 23 26 1026.8 1026.8 9.4
26/07:30am 15.4 8.1 12.7 84 1.5 ESE 43 50 23 27 1026.4 - 9.4
26/07:00am 14.8 9.9 12.7 87 1.1 SE 30 50 16 27 1026.3 1026.3 9.4
26/06:59am 14.4 9.6 11.6 83 1.5 SE 28 48 15 26 1026.4 - 9.4
26/06:30am 13.3 7.3 10.7 84 1.4 ESE 33 41 18 22 1026.3 - 9.0
26/06:00am 14.9 11.3 12.9 88 1.1 SE 24 30 13 16 1025.8 1025.8 8.8
26/05:30am 13.3 10.7 12.0 92 0.7 SE 17 20 9 11 1025.8 - 8.8
26/05:13am 14.3 8.3 12.0 86 1.2 ESE 35 41 19 22 1025.7 - 7.4
26/05:00am 15.0 13.0 11.4 79 1.9 SE 13 17 7 9 1025.6 1025.6 6.6
26/04:30am 14.9 13.4 12.0 83 1.6 E 11 15 6 8 1025.7 - 6.6
26/04:00am 14.9 12.4 12.2 84 1.5 ENE 17 19 9 10 1025.6 1025.6 6.6
26/03:30am 15.1 10.6 11.5 79 1.9 E 26 32 14 17 1025.4 - 6.6
26/03:00am 15.1 9.5 11.5 79 1.9 E 32 41 17 22 1025.3 1025.3 6.6
26/02:30am 15.2 9.2 12.0 81 1.7 E 35 44 19 24 1025.3 - 6.6
26/02:00am 15.0 8.6 12.1 83 1.6 ENE 37 43 20 23 1025.0 1025.0 6.6
26/01:30am 14.4 9.2 12.8 90 0.9 E 32 41 17 22 1025.2 - 6.6
26/01:00am 14.9 8.2 12.4 85 1.4 E 39 46 21 25 1025.1 1025.1 6.4
26/12:30am 15.2 8.1 12.3 83 1.6 E 41 46 22 25 1025.2 - 6.4
26/12:00am 15.3 8.4 12.8 85 1.4 E 41 48 22 26 1025.3 1025.3 6.4
 
Date/Time
EST
Tmp

°C
App
Tmp
°C
Dew
Point
°C
Rel
Hum
%
Delta-T

°C
Wind Press
QNH
hPa
Press
MSL
hPa
Rain
since
9 am
mm
Dir
 
Spd
km/h
Gust
km/h
Spd
kts
Gust
kts
25/11:30pm 15.3 8.4 12.8 85 1.4 E 41 46 22 25 1025.2 - 6.4
25/11:00pm 15.2 8.6 12.7 85 1.4 E 39 46 21 25 1025.2 1025.2 6.4
25/10:52pm 15.0 9.8 13.4 90 0.9 E 33 41 18 22 1025.3 - 6.4
25/10:30pm 14.2 12.3 13.1 93 0.6 SE 15 22 8 12 1025.7 - 6.4
25/10:00pm 14.0 11.0 12.6 91 0.8 SE 20 24 11 13 1025.7 1025.7 4.0
25/09:30pm 13.9 10.0 13.3 96 0.3 ESE 26 32 14 17 1025.9 - 3.8
25/09:00pm 13.4 7.2 12.6 95 0.4 E 37 48 20 26 1025.9 1025.9 3.4
25/08:30pm 14.4 6.5 12.8 90 0.9 ESE 46 52 25 28 1025.9 - 1.0
25/08:00pm 14.8 8.0 13.0 89 1.0 ESE 41 46 22 25 1025.6 1025.6 1.0
25/07:30pm 14.5 10.5 12.9 90 0.9 ESE 26 32 14 17 1025.6 - 1.0
25/07:00pm 14.3 8.1 12.5 89 1.0 E 37 43 20 23 1025.7 1025.7 1.0
25/06:30pm 14.5 7.5 12.4 87 1.1 E 41 48 22 26 1025.4 - 1.0
25/06:00pm 14.9 8.6 12.2 84 1.5 ESE 37 44 20 24 1024.8 1024.8 1.0
25/05:30pm 14.5 8.6 11.1 80 1.8 ESE 33 41 18 22 1024.4 - 1.0
25/05:00pm 14.5 7.9 12.5 88 1.1 ESE 39 44 21 24 1024.1 1024.1 1.0
25/04:30pm 13.9 6.3 11.9 88 1.1 E 43 48 23 26 1023.9 - 1.0
25/04:00pm 13.9 7.1 11.9 88 1.1 E 39 44 21 24 1023.9 1023.9 1.0
25/03:30pm 14.9 8.4 12.8 87 1.2 E 39 46 21 25 1023.8 - 0.0
25/03:22pm 15.4 9.4 13.4 88 1.1 E 37 43 20 23 1023.7 - 0.0
25/03:00pm 16.2 12.7 13.5 84 1.5 SE 24 28 13 15 1024.1 1024.1 0.0
25/02:30pm 15.9 13.0 13.0 83 1.6 SE 20 26 11 14 1024.2 - 0.0
25/02:00pm 17.0 14.1 14.1 83 1.6 S 22 28 12 15 1024.1 1024.1 0.0
25/01:30pm 16.8 13.0 13.5 81 1.9 S 26 32 14 17 1024.2 - 0.0
25/01:00pm 16.3 12.2 12.7 79 2.0 SSW 26 32 14 17 1024.3 1024.3 0.0
25/12:30pm 16.2 11.9 12.2 77 2.2 S 26 32 14 17 1024.7 - 0.0
25/12:00pm 16.4 12.2 12.4 77 2.2 S 26 32 14 17 1025.1 1025.1 0.0
25/11:30am 15.6 11.0 12.2 80 1.9 S 28 33 15 18 1025.4 - 0.0
25/11:00am 15.6 10.9 12.0 79 2.0 S 28 33 15 18 1025.5 1025.5 0.0
25/10:30am 15.4 10.1 11.4 77 2.2 S 30 35 16 19 1025.8 - 0.0
25/10:00am 15.1 10.4 11.9 81 1.7 SSW 28 33 15 18 1025.5 1025.5 0.0
25/09:30am 14.9 11.0 12.2 84 1.5 SSW 24 30 13 16 1025.4 - 0.0
25/09:00am 14.4 11.0 12.4 88 1.1 SSW 22 30 12 16 1025.3 1025.3 0.0
25/08:30am 13.9 10.4 12.3 90 0.9 SSW 22 26 12 14 1025.4 - 0.0
25/08:00am 13.5 10.0 12.2 92 0.7 SSW 22 28 12 15 1025.3 1025.3 0.0
25/07:30am 13.3 9.9 12.4 94 0.5 SW 22 26 12 14 1025.1 - 0.0
25/07:00am 12.6 9.4 11.8 95 0.4 SW 20 24 11 13 1024.8 1024.8 0.0
25/06:30am 12.4 9.7 11.6 95 0.4 SW 17 22 9 12 1024.6 - 0.0
25/06:00am 12.5 10.6 11.7 95 0.4 SW 13 19 7 10 1024.3 1024.3 0.0
25/05:30am 12.8 12.7 12.2 96 0.3 S 4 6 2 3 1024.0 - 0.0
25/05:00am 12.4 11.8 11.8 96 0.3 SW 6 7 3 4 1023.8 1023.8 0.0
25/04:30am 12.1 11.2 11.5 96 0.3 W 7 9 4 5 1023.7 - 0.0
25/04:00am 12.5 10.6 11.9 96 0.3 WNW 13 15 7 8 1023.5 1023.5 0.0
25/03:30am 12.8 11.0 12.2 96 0.3 NW 13 17 7 9 1023.3 - 0.0
25/03:00am 13.1 11.0 12.3 95 0.4 NNW 15 20 8 11 1023.5 1023.5 0.0
25/02:30am 13.2 10.7 12.3 94 0.5 N 17 20 9 11 1023.7 - 0.0
25/02:00am 13.3 11.2 12.4 94 0.5 N 15 19 8 10 1023.9 1023.9 0.0
25/01:30am 13.3 11.5 12.2 93 0.6 N 13 17 7 9 1024.3 - 0.0
25/01:00am 13.7 10.8 12.4 92 0.7 NNW 19 22 10 12 1024.5 1024.5 0.0
25/12:30am 14.1 11.4 12.8 92 0.7 N 19 24 10 13 1024.7 - 0.0
25/12:00am 14.3 11.6 12.9 91 0.8 N 19 24 10 13 1024.9 1024.9 0.0
 
Date/Time
EST
Tmp

°C
App
Tmp
°C
Dew
Point
°C
Rel
Hum
%
Delta-T

°C
Wind Press
QNH
hPa
Press
MSL
hPa
Rain
since
9 am
mm
Dir
 
Spd
km/h
Gust
km/h
Spd
kts
Gust
kts
24/11:30pm 14.1 11.4 12.8 92 0.7 N 19 22 10 12 1025.1 - 0.0
24/11:00pm 14.4 11.5 12.4 88 1.1 NNW 19 22 10 12 1025.2 1025.2 0.0

Latest Capital City Observations: Canberra | Sydney | Melbourne | Brisbane | Adelaide | Perth | Hobart | Darwin

Other Formats:

Comma delimited format used in spreadsheet applications
http://www.bom.gov.au/fwo/IDN60903/IDN60903.94939.axf

JavaScript Object Notation format (JSON) in row-major order
http://www.bom.gov.au/fwo/IDN60903/IDN60903.94939.json